Miri Airport Miri MY
ICAO: WBGR
IATA:
Category: Medium
Scheduled Services:

Elevation: 59 ft
TransAlt. 11000 ft.

Airport Communications:
APP:122.9
ATIS:127
GND:121.9
TWR:123.3

WBGR Zoom In..

If you have problems with the map follow the link
https://www.worldairports.se/pages/airport.php?
ICAO=WBGR

Runways:

(A) RW 02 length 9006 ft width 197 ft
ILS 110.10 / hdg 24

(B) RW 20 length 9006 ft width 197 ft
---- / hdg 204

Location; WBGR
Day. 05 / Time. 14.00 Zulu
* QNH: 1012
* Temperature: 27° c. 80.6°f.
* Wind from: 010° Speed 05 kn.
Dewpoint: 25° c.
Visibility: 10 km or more.
Clouds: Scattered 1400 ft.
Clouds: Broken 15000 ft.

WBGR 051400Z 01005KT 9999 SCT014 BKN150 27/25 Q1012


Wind From 010°
Speed 05 kn.

 
 
jpsmedia worldairports.se 2019   terms of use